sensor_id;sensor_type;location;lat;lon;timestamp;P1;durP1;ratioP1;P2;durP2;ratioP2
22205;SDS011;11272;50.104;8.754;2023-05-02T00:00:44;3.80;;;2.80;;
22205;SDS011;11272;50.104;8.754;2023-05-02T00:03:12;5.97;;;2.97;;
22205;SDS011;11272;50.104;8.754;2023-05-02T00:05:38;3.67;;;3.20;;
22205;SDS011;11272;50.104;8.754;2023-05-02T00:08:05;3.40;;;3.10;;
22205;SDS011;11272;50.104;8.754;2023-05-02T00:10:32;5.47;;;2.90;;
22205;SDS011;11272;50.104;8.754;2023-05-02T00:13:01;5.17;;;3.33;;
22205;SDS011;11272;50.104;8.754;2023-05-02T00:15:29;4.17;;;2.93;;
22205;SDS011;11272;50.104;8.754;2023-05-02T00:17:58;3.27;;;2.97;;
22205;SDS011;11272;50.104;8.754;2023-05-02T00:20:24;4.00;;;3.17;;
22205;SDS011;11272;50.104;8.754;2023-05-02T00:22:50;4.03;;;3.07;;
22205;SDS011;11272;50.104;8.754;2023-05-02T00:25:16;3.37;;;2.83;;
22205;SDS011;11272;50.104;8.754;2023-05-02T00:27:42;6.40;;;3.50;;
22205;SDS011;11272;50.104;8.754;2023-05-02T00:30:10;4.77;;;3.53;;
22205;SDS011;11272;50.104;8.754;2023-05-02T00:32:39;4.60;;;3.50;;
22205;SDS011;11272;50.104;8.754;2023-05-02T00:35:04;6.37;;;3.70;;
22205;SDS011;11272;50.104;8.754;2023-05-02T00:37:35;5.60;;;4.10;;
22205;SDS011;11272;50.104;8.754;2023-05-02T00:40:04;6.37;;;4.40;;
22205;SDS011;11272;50.104;8.754;2023-05-02T00:42:33;8.03;;;4.70;;
22205;SDS011;11272;50.104;8.754;2023-05-02T00:45:02;9.33;;;4.90;;
22205;SDS011;11272;50.104;8.754;2023-05-02T00:47:30;6.27;;;4.77;;
22205;SDS011;11272;50.104;8.754;2023-05-02T00:49:56;6.70;;;4.77;;
22205;SDS011;11272;50.104;8.754;2023-05-02T00:52:24;5.43;;;4.03;;
22205;SDS011;11272;50.104;8.754;2023-05-02T00:54:50;4.93;;;3.57;;
22205;SDS011;11272;50.104;8.754;2023-05-02T00:57:17;6.57;;;4.13;;
22205;SDS011;11272;50.104;8.754;2023-05-02T00:59:43;4.67;;;3.70;;
22205;SDS011;11272;50.104;8.754;2023-05-02T01:10:03;4.03;;;3.57;;
22205;SDS011;11272;50.104;8.754;2023-05-02T01:15:31;4.97;;;3.57;;
22205;SDS011;11272;50.104;8.754;2023-05-02T01:17:59;6.77;;;4.40;;
22205;SDS011;11272;50.104;8.754;2023-05-02T01:20:27;5.03;;;3.80;;
22205;SDS011;11272;50.104;8.754;2023-05-02T01:22:57;9.20;;;4.90;;
22205;SDS011;11272;50.104;8.754;2023-05-02T01:25:26;8.90;;;5.77;;
22205;SDS011;11272;50.104;8.754;2023-05-02T01:30:45;10.93;;;7.27;;
22205;SDS011;11272;50.104;8.754;2023-05-02T01:33:15;9.43;;;6.60;;
22205;SDS011;11272;50.104;8.754;2023-05-02T01:35:43;10.13;;;7.03;;
22205;SDS011;11272;50.104;8.754;2023-05-02T01:38:14;9.73;;;6.60;;
22205;SDS011;11272;50.104;8.754;2023-05-02T01:40:43;11.43;;;7.87;;
22205;SDS011;11272;50.104;8.754;2023-05-02T01:43:14;11.83;;;7.73;;
22205;SDS011;11272;50.104;8.754;2023-05-02T01:45:43;9.53;;;6.93;;
22205;SDS011;11272;50.104;8.754;2023-05-02T01:48:11;10.40;;;7.53;;
22205;SDS011;11272;50.104;8.754;2023-05-02T01:50:38;11.13;;;7.20;;
22205;SDS011;11272;50.104;8.754;2023-05-02T01:53:07;11.60;;;8.03;;
22205;SDS011;11272;50.104;8.754;2023-05-02T01:55:35;12.40;;;7.70;;
22205;SDS011;11272;50.104;8.754;2023-05-02T01:58:02;12.27;;;7.93;;
22205;SDS011;11272;50.104;8.754;2023-05-02T02:00:30;12.17;;;8.40;;
22205;SDS011;11272;50.104;8.754;2023-05-02T02:02:57;12.07;;;8.40;;
22205;SDS011;11272;50.104;8.754;2023-05-02T02:05:23;10.10;;;7.97;;
22205;SDS011;11272;50.104;8.754;2023-05-02T02:07:51;14.30;;;8.30;;
22205;SDS011;11272;50.104;8.754;2023-05-02T02:10:16;11.67;;;8.70;;
22205;SDS011;11272;50.104;8.754;2023-05-02T02:12:44;13.07;;;9.40;;
22205;SDS011;11272;50.104;8.754;2023-05-02T02:15:24;13.77;;;8.80;;
22205;SDS011;11272;50.104;8.754;2023-05-02T02:20:33;12.50;;;9.20;;
22205;SDS011;11272;50.104;8.754;2023-05-02T02:23:02;13.37;;;9.40;;
22205;SDS011;11272;50.104;8.754;2023-05-02T02:25:30;14.93;;;10.10;;
22205;SDS011;11272;50.104;8.754;2023-05-02T02:27:58;14.23;;;9.60;;
22205;SDS011;11272;50.104;8.754;2023-05-02T02:30:26;19.33;;;10.43;;
22205;SDS011;11272;50.104;8.754;2023-05-02T02:32:52;14.77;;;9.67;;
22205;SDS011;11272;50.104;8.754;2023-05-02T02:35:17;13.63;;;8.80;;
22205;SDS011;11272;50.104;8.754;2023-05-02T02:37:47;18.43;;;9.87;;
22205;SDS011;11272;50.104;8.754;2023-05-02T02:43:02;17.77;;;9.57;;
22205;SDS011;11272;50.104;8.754;2023-05-02T02:45:37;13.27;;;8.60;;
22205;SDS011;11272;50.104;8.754;2023-05-02T02:50:58;16.47;;;8.20;;
22205;SDS011;11272;50.104;8.754;2023-05-02T02:53:41;11.97;;;7.20;;
22205;SDS011;11272;50.104;8.754;2023-05-02T02:56:29;9.83;;;7.03;;
22205;SDS011;11272;50.104;8.754;2023-05-02T02:59:19;7.83;;;6.33;;
22205;SDS011;11272;50.104;8.754;2023-05-02T03:02:30;8.03;;;5.97;;
22205;SDS011;11272;50.104;8.754;2023-05-02T03:04:53;9.33;;;6.33;;
22205;SDS011;11272;50.104;8.754;2023-05-02T03:07:20;9.13;;;5.67;;
22205;SDS011;11272;50.104;8.754;2023-05-02T03:09:47;8.87;;;5.40;;
22205;SDS011;11272;50.104;8.754;2023-05-02T03:12:20;8.33;;;5.30;;
22205;SDS011;11272;50.104;8.754;2023-05-02T03:14:47;8.50;;;5.57;;
22205;SDS011;11272;50.104;8.754;2023-05-02T03:17:14;10.17;;;5.23;;
22205;SDS011;11272;50.104;8.754;2023-05-02T03:19:40;8.57;;;5.50;;
22205;SDS011;11272;50.104;8.754;2023-05-02T03:22:06;10.17;;;5.40;;
22205;SDS011;11272;50.104;8.754;2023-05-02T03:24:34;7.93;;;5.33;;
22205;SDS011;11272;50.104;8.754;2023-05-02T03:27:00;8.23;;;5.23;;
22205;SDS011;11272;50.104;8.754;2023-05-02T03:29:33;12.00;;;5.47;;
22205;SDS011;11272;50.104;8.754;2023-05-02T03:31:59;8.40;;;5.40;;
22205;SDS011;11272;50.104;8.754;2023-05-02T03:34:30;7.90;;;5.47;;
22205;SDS011;11272;50.104;8.754;2023-05-02T03:36:58;9.37;;;5.47;;
22205;SDS011;11272;50.104;8.754;2023-05-02T03:39:24;10.63;;;5.80;;
22205;SDS011;11272;50.104;8.754;2023-05-02T03:41:50;7.67;;;5.33;;
22205;SDS011;11272;50.104;8.754;2023-05-02T03:44:18;8.53;;;5.60;;
22205;SDS011;11272;50.104;8.754;2023-05-02T03:46:44;8.53;;;5.87;;
22205;SDS011;11272;50.104;8.754;2023-05-02T03:49:11;12.13;;;6.10;;
22205;SDS011;11272;50.104;8.754;2023-05-02T03:51:41;9.07;;;6.37;;
22205;SDS011;11272;50.104;8.754;2023-05-02T03:54:07;7.87;;;5.43;;
22205;SDS011;11272;50.104;8.754;2023-05-02T03:56:34;10.97;;;6.23;;
22205;SDS011;11272;50.104;8.754;2023-05-02T03:59:16;10.07;;;6.27;;
22205;SDS011;11272;50.104;8.754;2023-05-02T04:01:42;11.27;;;6.00;;
22205;SDS011;11272;50.104;8.754;2023-05-02T04:04:09;8.63;;;5.70;;
22205;SDS011;11272;50.104;8.754;2023-05-02T04:06:42;18.87;;;8.93;;
22205;SDS011;11272;50.104;8.754;2023-05-02T04:09:08;11.93;;;6.47;;
22205;SDS011;11272;50.104;8.754;2023-05-02T04:11:41;10.10;;;6.73;;
22205;SDS011;11272;50.104;8.754;2023-05-02T04:14:07;12.70;;;7.03;;
22205;SDS011;11272;50.104;8.754;2023-05-02T04:16:36;20.20;;;11.00;;
22205;SDS011;11272;50.104;8.754;2023-05-02T04:19:03;22.53;;;11.50;;
22205;SDS011;11272;50.104;8.754;2023-05-02T04:21:28;21.47;;;12.90;;
22205;SDS011;11272;50.104;8.754;2023-05-02T04:23:59;20.60;;;13.50;;
22205;SDS011;11272;50.104;8.754;2023-05-02T04:26:26;22.23;;;13.03;;
22205;SDS011;11272;50.104;8.754;2023-05-02T04:28:57;21.17;;;12.90;;
22205;SDS011;11272;50.104;8.754;2023-05-02T04:31:23;20.93;;;12.87;;
22205;SDS011;11272;50.104;8.754;2023-05-02T04:33:50;23.03;;;13.47;;
22205;SDS011;11272;50.104;8.754;2023-05-02T04:36:22;26.60;;;14.57;;
22205;SDS011;11272;50.104;8.754;2023-05-02T04:38:49;25.30;;;15.13;;
22205;SDS011;11272;50.104;8.754;2023-05-02T04:41:18;21.53;;;14.80;;
22205;SDS011;11272;50.104;8.754;2023-05-02T04:43:50;25.77;;;15.73;;
22205;SDS011;11272;50.104;8.754;2023-05-02T04:46:16;24.27;;;15.30;;
22205;SDS011;11272;50.104;8.754;2023-05-02T04:48:42;24.73;;;15.50;;
22205;SDS011;11272;50.104;8.754;2023-05-02T04:51:08;21.93;;;14.57;;
22205;SDS011;11272;50.104;8.754;2023-05-02T04:53:36;23.73;;;14.30;;
22205;SDS011;11272;50.104;8.754;2023-05-02T04:56:05;24.47;;;14.10;;
22205;SDS011;11272;50.104;8.754;2023-05-02T04:58:33;22.63;;;14.10;;
22205;SDS011;11272;50.104;8.754;2023-05-02T05:01:05;24.00;;;14.97;;
22205;SDS011;11272;50.104;8.754;2023-05-02T05:03:36;25.93;;;15.70;;
22205;SDS011;11272;50.104;8.754;2023-05-02T05:06:02;27.03;;;16.07;;
22205;SDS011;11272;50.104;8.754;2023-05-02T05:08:28;28.30;;;16.83;;
22205;SDS011;11272;50.104;8.754;2023-05-02T05:10:54;29.53;;;17.30;;
22205;SDS011;11272;50.104;8.754;2023-05-02T05:13:21;22.43;;;16.27;;
22205;SDS011;11272;50.104;8.754;2023-05-02T05:15:48;30.13;;;17.13;;
22205;SDS011;11272;50.104;8.754;2023-05-02T05:18:15;25.73;;;15.93;;
22205;SDS011;11272;50.104;8.754;2023-05-02T05:20:48;24.97;;;16.40;;
22205;SDS011;11272;50.104;8.754;2023-05-02T05:23:14;34.97;;;18.97;;
22205;SDS011;11272;50.104;8.754;2023-05-02T05:25:40;33.57;;;20.60;;
22205;SDS011;11272;50.104;8.754;2023-05-02T05:28:06;36.30;;;21.47;;
22205;SDS011;11272;50.104;8.754;2023-05-02T05:30:34;40.07;;;22.20;;
22205;SDS011;11272;50.104;8.754;2023-05-02T05:33:02;38.27;;;20.13;;
22205;SDS011;11272;50.104;8.754;2023-05-02T05:35:30;38.07;;;21.87;;
22205;SDS011;11272;50.104;8.754;2023-05-02T05:38:00;38.30;;;21.87;;
22205;SDS011;11272;50.104;8.754;2023-05-02T05:40:30;39.60;;;22.80;;
22205;SDS011;11272;50.104;8.754;2023-05-02T05:42:58;39.60;;;22.53;;
22205;SDS011;11272;50.104;8.754;2023-05-02T05:45:32;35.17;;;20.90;;
22205;SDS011;11272;50.104;8.754;2023-05-02T05:47:57;39.60;;;21.70;;
22205;SDS011;11272;50.104;8.754;2023-05-02T05:50:28;38.83;;;21.40;;
22205;SDS011;11272;50.104;8.754;2023-05-02T05:52:55;38.47;;;22.83;;
22205;SDS011;11272;50.104;8.754;2023-05-02T05:55:23;37.83;;;22.07;;
22205;SDS011;11272;50.104;8.754;2023-05-02T05:57:51;35.37;;;21.60;;
22205;SDS011;11272;50.104;8.754;2023-05-02T06:00:17;47.27;;;22.60;;
22205;SDS011;11272;50.104;8.754;2023-05-02T06:02:47;39.33;;;21.23;;
22205;SDS011;11272;50.104;8.754;2023-05-02T06:05:22;33.70;;;21.30;;
22205;SDS011;11272;50.104;8.754;2023-05-02T06:07:48;36.53;;;21.27;;
22205;SDS011;11272;50.104;8.754;2023-05-02T06:10:13;34.17;;;20.97;;
22205;SDS011;11272;50.104;8.754;2023-05-02T06:12:41;37.40;;;21.47;;
22205;SDS011;11272;50.104;8.754;2023-05-02T06:15:08;38.33;;;21.80;;
22205;SDS011;11272;50.104;8.754;2023-05-02T06:17:39;33.50;;;19.77;;
22205;SDS011;11272;50.104;8.754;2023-05-02T06:20:05;37.67;;;20.70;;
22205;SDS011;11272;50.104;8.754;2023-05-02T06:22:31;31.63;;;19.07;;
22205;SDS011;11272;50.104;8.754;2023-05-02T06:24:56;38.23;;;20.30;;
22205;SDS011;11272;50.104;8.754;2023-05-02T06:27:22;37.87;;;20.33;;
22205;SDS011;11272;50.104;8.754;2023-05-02T06:29:50;39.30;;;21.00;;
22205;SDS011;11272;50.104;8.754;2023-05-02T06:32:16;34.43;;;19.50;;
22205;SDS011;11272;50.104;8.754;2023-05-02T06:34:42;34.63;;;21.53;;
22205;SDS011;11272;50.104;8.754;2023-05-02T06:37:10;33.23;;;19.50;;
22205;SDS011;11272;50.104;8.754;2023-05-02T06:39:36;37.83;;;19.90;;
22205;SDS011;11272;50.104;8.754;2023-05-02T06:42:02;31.73;;;17.90;;
22205;SDS011;11272;50.104;8.754;2023-05-02T06:44:28;35.00;;;19.67;;
22205;SDS011;11272;50.104;8.754;2023-05-02T06:46:54;32.43;;;19.20;;
22205;SDS011;11272;50.104;8.754;2023-05-02T06:49:27;31.03;;;18.87;;
22205;SDS011;11272;50.104;8.754;2023-05-02T06:51:53;32.33;;;18.70;;
22205;SDS011;11272;50.104;8.754;2023-05-02T06:54:26;32.73;;;18.97;;
22205;SDS011;11272;50.104;8.754;2023-05-02T06:56:54;30.83;;;18.73;;
22205;SDS011;11272;50.104;8.754;2023-05-02T06:59:19;31.27;;;18.67;;
22205;SDS011;11272;50.104;8.754;2023-05-02T07:01:45;29.47;;;18.13;;
22205;SDS011;11272;50.104;8.754;2023-05-02T07:04:13;37.27;;;18.20;;
22205;SDS011;11272;50.104;8.754;2023-05-02T07:06:43;44.43;;;23.80;;
22205;SDS011;11272;50.104;8.754;2023-05-02T07:09:10;28.13;;;17.50;;
22205;SDS011;11272;50.104;8.754;2023-05-02T07:11:36;30.30;;;18.23;;
22205;SDS011;11272;50.104;8.754;2023-05-02T07:14:06;29.00;;;17.27;;
22205;SDS011;11272;50.104;8.754;2023-05-02T07:16:32;33.40;;;17.73;;
22205;SDS011;11272;50.104;8.754;2023-05-02T07:18:58;29.90;;;16.90;;
22205;SDS011;11272;50.104;8.754;2023-05-02T07:21:24;27.30;;;16.83;;
22205;SDS011;11272;50.104;8.754;2023-05-02T07:23:49;31.83;;;17.47;;
22205;SDS011;11272;50.104;8.754;2023-05-02T07:26:15;25.20;;;16.00;;
22205;SDS011;11272;50.104;8.754;2023-05-02T07:28:43;30.50;;;16.80;;
22205;SDS011;11272;50.104;8.754;2023-05-02T07:31:11;29.27;;;16.73;;
22205;SDS011;11272;50.104;8.754;2023-05-02T07:33:37;22.63;;;14.40;;
22205;SDS011;11272;50.104;8.754;2023-05-02T07:36:03;25.97;;;16.33;;
22205;SDS011;11272;50.104;8.754;2023-05-02T07:38:29;27.63;;;16.20;;
22205;SDS011;11272;50.104;8.754;2023-05-02T07:40:57;24.37;;;15.47;;
22205;SDS011;11272;50.104;8.754;2023-05-02T07:43:23;27.43;;;15.43;;
22205;SDS011;11272;50.104;8.754;2023-05-02T07:45:49;24.77;;;14.40;;
22205;SDS011;11272;50.104;8.754;2023-05-02T07:48:14;24.17;;;14.87;;
22205;SDS011;11272;50.104;8.754;2023-05-02T07:50:46;26.07;;;15.03;;
22205;SDS011;11272;50.104;8.754;2023-05-02T07:53:14;37.50;;;15.40;;
22205;SDS011;11272;50.104;8.754;2023-05-02T07:55:39;24.83;;;14.53;;
22205;SDS011;11272;50.104;8.754;2023-05-02T07:58:05;23.77;;;13.27;;
22205;SDS011;11272;50.104;8.754;2023-05-02T08:00:30;20.73;;;12.90;;
22205;SDS011;11272;50.104;8.754;2023-05-02T08:02:56;20.97;;;11.60;;
22205;SDS011;11272;50.104;8.754;2023-05-02T08:05:21;24.57;;;11.90;;
22205;SDS011;11272;50.104;8.754;2023-05-02T08:07:47;20.03;;;12.40;;
22205;SDS011;11272;50.104;8.754;2023-05-02T08:10:12;24.70;;;13.47;;
22205;SDS011;11272;50.104;8.754;2023-05-02T08:12:38;25.23;;;13.23;;
22205;SDS011;11272;50.104;8.754;2023-05-02T08:15:09;24.90;;;14.17;;
22205;SDS011;11272;50.104;8.754;2023-05-02T08:17:37;27.73;;;14.73;;
22205;SDS011;11272;50.104;8.754;2023-05-02T08:20:05;26.80;;;14.57;;
22205;SDS011;11272;50.104;8.754;2023-05-02T08:22:31;27.47;;;15.10;;
22205;SDS011;11272;50.104;8.754;2023-05-02T08:24:56;25.07;;;15.27;;
22205;SDS011;11272;50.104;8.754;2023-05-02T08:27:22;26.90;;;15.37;;
22205;SDS011;11272;50.104;8.754;2023-05-02T08:29:47;24.67;;;14.87;;
22205;SDS011;11272;50.104;8.754;2023-05-02T08:32:13;25.93;;;13.30;;
22205;SDS011;11272;50.104;8.754;2023-05-02T08:34:38;23.30;;;12.20;;
22205;SDS011;11272;50.104;8.754;2023-05-02T08:37:10;18.40;;;9.93;;
22205;SDS011;11272;50.104;8.754;2023-05-02T08:39:36;19.63;;;10.40;;
22205;SDS011;11272;50.104;8.754;2023-05-02T08:42:05;21.30;;;10.40;;
22205;SDS011;11272;50.104;8.754;2023-05-02T08:44:31;19.53;;;10.90;;
22205;SDS011;11272;50.104;8.754;2023-05-02T08:47:01;19.33;;;11.00;;
22205;SDS011;11272;50.104;8.754;2023-05-02T08:49:28;20.67;;;11.53;;
22205;SDS011;11272;50.104;8.754;2023-05-02T08:51:58;21.63;;;11.60;;
22205;SDS011;11272;50.104;8.754;2023-05-02T08:54:24;18.80;;;10.83;;
22205;SDS011;11272;50.104;8.754;2023-05-02T08:56:54;18.13;;;10.83;;
22205;SDS011;11272;50.104;8.754;2023-05-02T08:59:21;20.10;;;10.77;;
22205;SDS011;11272;50.104;8.754;2023-05-02T09:01:51;21.17;;;12.10;;
22205;SDS011;11272;50.104;8.754;2023-05-02T09:04:23;19.17;;;11.60;;
22205;SDS011;11272;50.104;8.754;2023-05-02T09:06:57;22.93;;;13.20;;
22205;SDS011;11272;50.104;8.754;2023-05-02T09:09:23;21.10;;;13.00;;
22205;SDS011;11272;50.104;8.754;2023-05-02T09:11:54;27.47;;;14.43;;
22205;SDS011;11272;50.104;8.754;2023-05-02T09:14:21;22.13;;;13.33;;
22205;SDS011;11272;50.104;8.754;2023-05-02T09:16:48;25.37;;;13.40;;
22205;SDS011;11272;50.104;8.754;2023-05-02T09:19:26;22.23;;;11.90;;
22205;SDS011;11272;50.104;8.754;2023-05-02T09:22:00;24.30;;;12.03;;
22205;SDS011;11272;50.104;8.754;2023-05-02T09:24:26;23.27;;;12.60;;
22205;SDS011;11272;50.104;8.754;2023-05-02T09:26:55;22.90;;;12.50;;
22205;SDS011;11272;50.104;8.754;2023-05-02T09:29:29;20.40;;;11.57;;
22205;SDS011;11272;50.104;8.754;2023-05-02T09:32:00;19.93;;;11.20;;
22205;SDS011;11272;50.104;8.754;2023-05-02T09:34:29;20.77;;;11.53;;
22205;SDS011;11272;50.104;8.754;2023-05-02T09:36:57;20.83;;;10.23;;
22205;SDS011;11272;50.104;8.754;2023-05-02T09:39:24;20.37;;;10.63;;
22205;SDS011;11272;50.104;8.754;2023-05-02T09:41:53;21.27;;;10.07;;
22205;SDS011;11272;50.104;8.754;2023-05-02T09:44:24;23.57;;;11.27;;
22205;SDS011;11272;50.104;8.754;2023-05-02T09:46:54;22.70;;;11.97;;
22205;SDS011;11272;50.104;8.754;2023-05-02T09:49:37;22.63;;;11.70;;
22205;SDS011;11272;50.104;8.754;2023-05-02T09:52:17;19.40;;;10.83;;
22205;SDS011;11272;50.104;8.754;2023-05-02T09:54:49;21.50;;;10.77;;
22205;SDS011;11272;50.104;8.754;2023-05-02T09:57:16;21.17;;;11.07;;
22205;SDS011;11272;50.104;8.754;2023-05-02T09:59:54;17.27;;;10.60;;
22205;SDS011;11272;50.104;8.754;2023-05-02T10:02:21;16.00;;;9.67;;
22205;SDS011;11272;50.104;8.754;2023-05-02T10:04:52;21.00;;;11.10;;
22205;SDS011;11272;50.104;8.754;2023-05-02T10:07:21;19.60;;;9.07;;
22205;SDS011;11272;50.104;8.754;2023-05-02T10:09:47;14.90;;;8.50;;
22205;SDS011;11272;50.104;8.754;2023-05-02T10:12:15;14.30;;;8.43;;
22205;SDS011;11272;50.104;8.754;2023-05-02T10:14:48;11.60;;;7.30;;
22205;SDS011;11272;50.104;8.754;2023-05-02T10:17:21;14.93;;;8.03;;
22205;SDS011;11272;50.104;8.754;2023-05-02T10:19:58;13.70;;;7.97;;
22205;SDS011;11272;50.104;8.754;2023-05-02T10:22:30;12.70;;;7.63;;
22205;SDS011;11272;50.104;8.754;2023-05-02T10:24:58;15.67;;;8.80;;
22205;SDS011;11272;50.104;8.754;2023-05-02T10:27:25;15.43;;;8.70;;
22205;SDS011;11272;50.104;8.754;2023-05-02T10:29:50;15.13;;;8.63;;
22205;SDS011;11272;50.104;8.754;2023-05-02T10:32:18;18.00;;;8.63;;
22205;SDS011;11272;50.104;8.754;2023-05-02T10:34:49;13.87;;;8.80;;
22205;SDS011;11272;50.104;8.754;2023-05-02T10:37:18;15.20;;;8.97;;
22205;SDS011;11272;50.104;8.754;2023-05-02T10:39:45;14.90;;;9.57;;
22205;SDS011;11272;50.104;8.754;2023-05-02T10:42:11;16.23;;;9.40;;
22205;SDS011;11272;50.104;8.754;2023-05-02T10:44:41;14.93;;;7.97;;
22205;SDS011;11272;50.104;8.754;2023-05-02T10:47:16;13.47;;;7.47;;
22205;SDS011;11272;50.104;8.754;2023-05-02T10:49:52;16.03;;;7.47;;
22205;SDS011;11272;50.104;8.754;2023-05-02T10:52:31;11.70;;;6.90;;
22205;SDS011;11272;50.104;8.754;2023-05-02T11:00:25;11.40;;;6.30;;
22205;SDS011;11272;50.104;8.754;2023-05-02T11:02:53;11.17;;;7.57;;
22205;SDS011;11272;50.104;8.754;2023-05-02T11:05:20;9.50;;;6.70;;
22205;SDS011;11272;50.104;8.754;2023-05-02T11:07:47;15.23;;;7.47;;
22205;SDS011;11272;50.104;8.754;2023-05-02T11:12:51;9.70;;;6.10;;
22205;SDS011;11272;50.104;8.754;2023-05-02T11:18:00;11.87;;;6.33;;
22205;SDS011;11272;50.104;8.754;2023-05-02T11:20:26;10.03;;;5.83;;
22205;SDS011;11272;50.104;8.754;2023-05-02T11:22:55;12.83;;;6.00;;
22205;SDS011;11272;50.104;8.754;2023-05-02T11:25:29;9.97;;;6.47;;
22205;SDS011;11272;50.104;8.754;2023-05-02T11:27:59;10.85;;;5.82;;
22205;SDS011;11272;50.104;8.754;2023-05-02T11:30:38;9.27;;;5.40;;
22205;SDS011;11272;50.104;8.754;2023-05-02T11:35:34;8.13;;;5.03;;
22205;SDS011;11272;50.104;8.754;2023-05-02T11:38:07;5.05;;;3.70;;
22205;SDS011;11272;50.104;8.754;2023-05-02T11:40:37;6.35;;;4.60;;
22205;SDS011;11272;50.104;8.754;2023-05-02T11:43:13;4.72;;;4.07;;
22205;SDS011;11272;50.104;8.754;2023-05-02T11:45:42;7.03;;;4.45;;
22205;SDS011;11272;50.104;8.754;2023-05-02T11:48:11;7.25;;;4.82;;
22205;SDS011;11272;50.104;8.754;2023-05-02T11:50:41;7.10;;;4.22;;
22205;SDS011;11272;50.104;8.754;2023-05-02T11:53:09;4.40;;;2.90;;
22205;SDS011;11272;50.104;8.754;2023-05-02T11:55:36;4.22;;;3.20;;
22205;SDS011;11272;50.104;8.754;2023-05-02T11:58:12;5.35;;;2.80;;
22205;SDS011;11272;50.104;8.754;2023-05-02T12:00:42;9.02;;;2.80;;
22205;SDS011;11272;50.104;8.754;2023-05-02T12:03:27;3.38;;;2.55;;
22205;SDS011;11272;50.104;8.754;2023-05-02T12:06:17;5.07;;;3.00;;
22205;SDS011;11272;50.104;8.754;2023-05-02T12:08:47;5.03;;;3.25;;
22205;SDS011;11272;50.104;8.754;2023-05-02T12:11:14;6.95;;;3.33;;
22205;SDS011;11272;50.104;8.754;2023-05-02T12:13:46;6.07;;;2.78;;
22205;SDS011;11272;50.104;8.754;2023-05-02T12:16:12;6.57;;;3.42;;
22205;SDS011;11272;50.104;8.754;2023-05-02T12:18:40;6.28;;;3.30;;
22205;SDS011;11272;50.104;8.754;2023-05-02T12:21:09;9.13;;;4.20;;
22205;SDS011;11272;50.104;8.754;2023-05-02T12:23:34;4.43;;;2.63;;
22205;SDS011;11272;50.104;8.754;2023-05-02T12:26:14;4.63;;;2.53;;
22205;SDS011;11272;50.104;8.754;2023-05-02T12:28:48;2.17;;;1.97;;
22205;SDS011;11272;50.104;8.754;2023-05-02T12:31:15;5.87;;;2.60;;
22205;SDS011;11272;50.104;8.754;2023-05-02T12:33:44;3.27;;;2.40;;
22205;SDS011;11272;50.104;8.754;2023-05-02T12:36:16;3.23;;;2.10;;
22205;SDS011;11272;50.104;8.754;2023-05-02T12:38:55;5.10;;;2.40;;
22205;SDS011;11272;50.104;8.754;2023-05-02T12:41:39;3.40;;;2.33;;
22205;SDS011;11272;50.104;8.754;2023-05-02T12:44:10;4.67;;;3.00;;
22205;SDS011;11272;50.104;8.754;2023-05-02T12:46:56;5.80;;;2.60;;
22205;SDS011;11272;50.104;8.754;2023-05-02T12:49:24;4.47;;;2.33;;
22205;SDS011;11272;50.104;8.754;2023-05-02T12:51:52;6.60;;;2.50;;
22205;SDS011;11272;50.104;8.754;2023-05-02T12:54:20;5.63;;;2.50;;
22205;SDS011;11272;50.104;8.754;2023-05-02T12:56:46;4.20;;;2.77;;
22205;SDS011;11272;50.104;8.754;2023-05-02T12:59:31;2.80;;;2.50;;
22205;SDS011;11272;50.104;8.754;2023-05-02T13:01:57;5.67;;;2.90;;
22205;SDS011;11272;50.104;8.754;2023-05-02T13:04:35;7.03;;;3.20;;
22205;SDS011;11272;50.104;8.754;2023-05-02T13:07:03;4.70;;;3.03;;
22205;SDS011;11272;50.104;8.754;2023-05-02T13:09:29;6.23;;;3.17;;
22205;SDS011;11272;50.104;8.754;2023-05-02T13:11:54;4.23;;;3.03;;
22205;SDS011;11272;50.104;8.754;2023-05-02T13:14:21;4.07;;;2.53;;
22205;SDS011;11272;50.104;8.754;2023-05-02T13:16:49;9.20;;;3.30;;
22205;SDS011;11272;50.104;8.754;2023-05-02T13:19:18;5.80;;;3.10;;
22205;SDS011;11272;50.104;8.754;2023-05-02T13:21:44;3.20;;;2.67;;
22205;SDS011;11272;50.104;8.754;2023-05-02T13:24:09;9.20;;;3.53;;
22205;SDS011;11272;50.104;8.754;2023-05-02T13:26:35;6.43;;;3.17;;
22205;SDS011;11272;50.104;8.754;2023-05-02T13:29:00;7.53;;;3.00;;
22205;SDS011;11272;50.104;8.754;2023-05-02T13:31:26;5.80;;;3.13;;
22205;SDS011;11272;50.104;8.754;2023-05-02T13:33:54;5.60;;;3.40;;
22205;SDS011;11272;50.104;8.754;2023-05-02T13:36:27;4.27;;;3.07;;
22205;SDS011;11272;50.104;8.754;2023-05-02T13:38:52;4.73;;;3.53;;
22205;SDS011;11272;50.104;8.754;2023-05-02T13:41:20;6.90;;;3.10;;
22205;SDS011;11272;50.104;8.754;2023-05-02T13:43:47;6.83;;;3.33;;
22205;SDS011;11272;50.104;8.754;2023-05-02T13:46:13;6.40;;;3.10;;
22205;SDS011;11272;50.104;8.754;2023-05-02T13:48:38;9.63;;;3.80;;
22205;SDS011;11272;50.104;8.754;2023-05-02T13:51:07;5.13;;;3.17;;
22205;SDS011;11272;50.104;8.754;2023-05-02T13:53:33;8.33;;;3.27;;
22205;SDS011;11272;50.104;8.754;2023-05-02T13:55:58;4.83;;;3.77;;
22205;SDS011;11272;50.104;8.754;2023-05-02T13:58:24;6.60;;;3.10;;
22205;SDS011;11272;50.104;8.754;2023-05-02T14:00:49;5.07;;;3.27;;
22205;SDS011;11272;50.104;8.754;2023-05-02T14:03:16;4.43;;;3.37;;
22205;SDS011;11272;50.104;8.754;2023-05-02T14:05:41;7.00;;;3.40;;
22205;SDS011;11272;50.104;8.754;2023-05-02T14:08:10;6.87;;;3.27;;
22205;SDS011;11272;50.104;8.754;2023-05-02T14:10:36;6.60;;;3.67;;
22205;SDS011;11272;50.104;8.754;2023-05-02T14:13:02;4.50;;;3.40;;
22205;SDS011;11272;50.104;8.754;2023-05-02T14:15:28;5.50;;;3.20;;
22205;SDS011;11272;50.104;8.754;2023-05-02T14:17:57;6.50;;;3.57;;
22205;SDS011;11272;50.104;8.754;2023-05-02T14:20:23;4.40;;;2.90;;
22205;SDS011;11272;50.104;8.754;2023-05-02T14:22:49;3.73;;;2.50;;
22205;SDS011;11272;50.104;8.754;2023-05-02T14:25:14;11.37;;;3.47;;
22205;SDS011;11272;50.104;8.754;2023-05-02T14:27:40;4.27;;;3.10;;
22205;SDS011;11272;50.104;8.754;2023-05-02T14:30:09;3.47;;;2.47;;
22205;SDS011;11272;50.104;8.754;2023-05-02T14:32:36;4.33;;;3.07;;
22205;SDS011;11272;50.104;8.754;2023-05-02T14:35:03;4.63;;;3.07;;
22205;SDS011;11272;50.104;8.754;2023-05-02T14:37:29;5.63;;;2.73;;
22205;SDS011;11272;50.104;8.754;2023-05-02T14:39:55;5.37;;;3.20;;
22205;SDS011;11272;50.104;8.754;2023-05-02T14:42:25;6.23;;;2.83;;
22205;SDS011;11272;50.104;8.754;2023-05-02T14:44:51;4.03;;;2.73;;
22205;SDS011;11272;50.104;8.754;2023-05-02T14:47:16;5.10;;;3.47;;
22205;SDS011;11272;50.104;8.754;2023-05-02T14:49:42;6.57;;;4.53;;
22205;SDS011;11272;50.104;8.754;2023-05-02T14:52:10;6.30;;;3.27;;
22205;SDS011;11272;50.104;8.754;2023-05-02T14:54:48;4.20;;;3.20;;
22205;SDS011;11272;50.104;8.754;2023-05-02T14:57:14;7.20;;;3.67;;
22205;SDS011;11272;50.104;8.754;2023-05-02T14:59:42;5.97;;;3.67;;
22205;SDS011;11272;50.104;8.754;2023-05-02T15:02:08;11.30;;;4.30;;
22205;SDS011;11272;50.104;8.754;2023-05-02T15:04:34;3.93;;;3.53;;
22205;SDS011;11272;50.104;8.754;2023-05-02T15:06:59;4.97;;;3.50;;
22205;SDS011;11272;50.104;8.754;2023-05-02T15:09:28;7.13;;;4.13;;
22205;SDS011;11272;50.104;8.754;2023-05-02T15:11:56;7.30;;;3.73;;
22205;SDS011;11272;50.104;8.754;2023-05-02T15:14:22;7.47;;;4.03;;
22205;SDS011;11272;50.104;8.754;2023-05-02T15:16:48;8.67;;;3.77;;
22205;SDS011;11272;50.104;8.754;2023-05-02T15:19:13;5.43;;;4.33;;